createdAt,value
2023-05-18T00:00:31.311Z,3.27
2023-05-18T00:02:59.292Z,3.17
2023-05-18T00:05:27.634Z,3.40
2023-05-18T00:07:55.764Z,3.63
2023-05-18T00:10:23.715Z,3.27
2023-05-18T00:12:51.752Z,3.83
2023-05-18T00:15:19.842Z,3.70
2023-05-18T00:17:50.598Z,3.67
2023-05-18T00:20:22.160Z,3.70
2023-05-18T00:22:50.806Z,3.70
2023-05-18T00:25:18.871Z,3.60
2023-05-18T00:27:49.368Z,3.43
2023-05-18T00:30:17.394Z,3.50
2023-05-18T00:32:45.681Z,3.37
2023-05-18T00:35:15.087Z,3.03
2023-05-18T00:37:43.011Z,3.60
2023-05-18T00:40:13.234Z,3.17
2023-05-18T00:42:41.281Z,4.00
2023-05-18T00:45:11.192Z,3.43
2023-05-18T00:47:39.211Z,3.70
2023-05-18T00:50:08.323Z,3.57
2023-05-18T00:55:26.438Z,3.83
2023-05-18T00:57:56.365Z,3.37
2023-05-18T01:00:24.530Z,3.83
2023-05-18T01:02:53.021Z,3.20
2023-05-18T01:05:22.278Z,3.50
2023-05-18T01:07:51.749Z,3.70
2023-05-18T01:10:21.334Z,3.70
2023-05-18T01:12:54.610Z,3.30
2023-05-18T01:15:29.865Z,4.07
2023-05-18T01:18:10.236Z,3.70
2023-05-18T01:20:45.703Z,3.70
2023-05-18T01:23:42.369Z,3.30
2023-05-18T01:26:29.576Z,3.40
2023-05-18T01:29:00.219Z,3.10
2023-05-18T01:31:28.975Z,3.53
2023-05-18T01:33:57.048Z,3.40
2023-05-18T01:36:25.081Z,3.20
2023-05-18T01:38:56.390Z,3.83
2023-05-18T01:41:27.734Z,3.30
2023-05-18T01:44:02.473Z,3.40
2023-05-18T01:46:37.723Z,3.37
2023-05-18T01:49:14.015Z,3.47
2023-05-18T01:51:46.917Z,3.47
2023-05-18T01:54:17.588Z,3.20
2023-05-18T01:56:49.873Z,3.83
2023-05-18T01:59:18.827Z,3.27
2023-05-18T02:01:46.763Z,3.13
2023-05-18T02:04:16.794Z,3.60
2023-05-18T02:06:44.886Z,3.97
2023-05-18T02:09:13.249Z,3.50
2023-05-18T02:11:41.429Z,3.90
2023-05-18T02:14:10.898Z,3.67
2023-05-18T02:16:38.948Z,3.13
2023-05-18T02:19:07.196Z,4.20
2023-05-18T02:21:35.916Z,3.47
2023-05-18T02:24:04.839Z,3.83
2023-05-18T02:26:32.732Z,3.27
2023-05-18T02:29:00.674Z,3.70
2023-05-18T02:31:31.067Z,3.50
2023-05-18T02:33:59.273Z,3.33
2023-05-18T02:36:27.291Z,3.83
2023-05-18T02:38:55.528Z,3.50
2023-05-18T02:41:23.476Z,3.47
2023-05-18T02:43:51.613Z,3.30
2023-05-18T02:46:20.617Z,3.90
2023-05-18T02:48:50.027Z,3.53
2023-05-18T02:51:17.963Z,3.50
2023-05-18T02:53:46.903Z,3.30
2023-05-18T02:56:17.774Z,4.13
2023-05-18T02:58:57.753Z,4.03
2023-05-18T03:01:37.724Z,4.40
2023-05-18T03:04:07.196Z,3.33
2023-05-18T03:06:38.311Z,3.77
2023-05-18T03:09:06.293Z,3.40
2023-05-18T03:11:39.899Z,3.83
2023-05-18T03:14:08.049Z,3.77
2023-05-18T03:16:38.858Z,3.97
2023-05-18T03:19:14.358Z,4.27
2023-05-18T03:21:42.547Z,4.07
2023-05-18T03:24:14.477Z,4.47
2023-05-18T03:26:44.335Z,3.57
2023-05-18T03:29:13.346Z,3.90
2023-05-18T03:31:41.872Z,3.97
2023-05-18T03:34:13.150Z,3.63
2023-05-18T03:36:42.389Z,3.83
2023-05-18T03:39:11.240Z,4.17
2023-05-18T03:41:39.465Z,4.20
2023-05-18T03:44:26.841Z,4.20
2023-05-18T03:46:56.045Z,3.70
2023-05-18T03:49:25.482Z,3.70
2023-05-18T03:51:54.684Z,4.27
2023-05-18T03:54:23.092Z,4.20
2023-05-18T03:56:52.792Z,4.10
2023-05-18T03:59:20.768Z,4.30
2023-05-18T04:01:53.864Z,3.63
2023-05-18T04:04:23.283Z,4.00
2023-05-18T04:06:52.935Z,3.97
2023-05-18T04:09:23.780Z,3.80
2023-05-18T04:11:51.764Z,4.17
2023-05-18T04:14:20.840Z,4.00
2023-05-18T04:16:48.882Z,4.13
2023-05-18T04:19:17.014Z,4.40
2023-05-18T04:21:47.383Z,4.00
2023-05-18T04:24:16.695Z,4.00
2023-05-18T04:26:44.720Z,4.20
2023-05-18T04:29:13.453Z,4.00
2023-05-18T04:31:44.541Z,4.10
2023-05-18T04:34:13.710Z,4.60
2023-05-18T04:36:43.899Z,4.03
2023-05-18T04:39:12.485Z,4.20
2023-05-18T04:41:42.427Z,3.97
2023-05-18T04:44:10.541Z,3.90
2023-05-18T04:46:40.739Z,3.80
2023-05-18T04:49:11.591Z,4.17
2023-05-18T04:51:39.675Z,4.37
2023-05-18T04:54:09.001Z,4.50
2023-05-18T04:56:37.017Z,4.13
2023-05-18T04:59:06.391Z,3.83
2023-05-18T05:01:54.418Z,4.33
2023-05-18T05:04:23.666Z,4.30
2023-05-18T05:06:51.893Z,4.47
2023-05-18T05:09:19.886Z,4.40
2023-05-18T05:11:47.895Z,4.03
2023-05-18T05:14:17.582Z,4.43
2023-05-18T05:16:45.745Z,3.40
2023-05-18T05:19:13.788Z,4.13
2023-05-18T05:21:41.914Z,4.17
2023-05-18T05:24:10.037Z,4.00
2023-05-18T05:26:37.979Z,4.33
2023-05-18T05:29:28.217Z,3.93
2023-05-18T05:32:15.140Z,4.43
2023-05-18T05:34:46.711Z,4.40
2023-05-18T05:37:15.209Z,4.60
2023-05-18T05:39:43.274Z,4.30
2023-05-18T05:42:11.500Z,4.37
2023-05-18T05:44:41.975Z,3.80
2023-05-18T05:47:10.492Z,4.53
2023-05-18T05:49:38.729Z,4.07
2023-05-18T05:52:08.360Z,4.00
2023-05-18T05:54:36.966Z,4.30
2023-05-18T05:57:05.231Z,4.27
2023-05-18T05:59:33.315Z,5.20
2023-05-18T06:02:03.097Z,4.57
2023-05-18T06:04:31.688Z,4.40
2023-05-18T06:07:00.689Z,4.63
2023-05-18T06:09:30.249Z,4.53
2023-05-18T06:11:58.229Z,4.67
2023-05-18T06:14:28.020Z,4.93
2023-05-18T06:16:58.287Z,4.83
2023-05-18T06:19:27.981Z,4.93
2023-05-18T06:22:15.710Z,4.37
2023-05-18T06:24:55.489Z,4.87
2023-05-18T06:27:32.525Z,5.07
2023-05-18T06:30:18.909Z,4.80
2023-05-18T06:33:01.519Z,5.00
2023-05-18T06:35:30.992Z,4.80
2023-05-18T06:37:59.145Z,5.23
2023-05-18T06:40:27.449Z,4.67
2023-05-18T06:42:55.688Z,4.83
2023-05-18T06:45:36.120Z,4.80
2023-05-18T06:48:16.667Z,5.50
2023-05-18T06:50:46.064Z,5.23
2023-05-18T06:53:14.037Z,5.53
2023-05-18T06:55:42.134Z,5.40
2023-05-18T06:58:10.958Z,5.33
2023-05-18T07:00:39.346Z,5.60
2023-05-18T07:03:08.407Z,4.90
2023-05-18T07:05:39.161Z,5.30
2023-05-18T07:08:09.652Z,4.90
2023-05-18T07:10:38.252Z,5.37
2023-05-18T07:13:06.521Z,5.77
2023-05-18T07:15:34.712Z,5.10
2023-05-18T07:18:04.437Z,5.47
2023-05-18T07:20:32.408Z,4.73
2023-05-18T07:23:00.326Z,5.50
2023-05-18T07:25:29.892Z,5.00
2023-05-18T07:27:58.318Z,5.50
2023-05-18T07:30:27.312Z,5.23
2023-05-18T07:32:56.509Z,5.13
2023-05-18T07:35:26.354Z,5.53
2023-05-18T07:37:54.636Z,4.93
2023-05-18T07:40:22.851Z,5.17
2023-05-18T07:42:52.273Z,5.73
2023-05-18T07:45:20.352Z,5.03
2023-05-18T07:47:48.326Z,4.77
2023-05-18T07:50:16.817Z,5.40
2023-05-18T07:52:44.902Z,4.83
2023-05-18T07:55:12.796Z,4.67
2023-05-18T07:57:41.093Z,5.47
2023-05-18T08:00:12.216Z,5.00
2023-05-18T08:02:43.887Z,5.00
2023-05-18T08:05:12.145Z,5.07
2023-05-18T08:07:40.114Z,4.97
2023-05-18T08:10:08.791Z,4.90
2023-05-18T08:12:36.784Z,5.20
2023-05-18T08:15:05.291Z,5.07
2023-05-18T08:17:34.595Z,5.07
2023-05-18T08:20:04.797Z,4.97
2023-05-18T08:22:32.775Z,4.90
2023-05-18T08:25:01.259Z,4.77
2023-05-18T08:27:29.572Z,5.17
2023-05-18T08:29:57.571Z,4.37
2023-05-18T08:32:44.267Z,4.50
2023-05-18T08:35:13.750Z,4.20
2023-05-18T08:37:41.792Z,4.20
2023-05-18T08:40:11.530Z,4.23
2023-05-18T08:42:49.872Z,4.33
2023-05-18T08:45:24.839Z,4.20
2023-05-18T08:47:56.314Z,4.40
2023-05-18T08:50:28.503Z,4.30
2023-05-18T08:53:01.062Z,3.97
2023-05-18T08:55:29.854Z,4.00
2023-05-18T08:58:01.770Z,3.70
2023-05-18T09:00:30.319Z,3.70
2023-05-18T09:02:59.113Z,3.27
2023-05-18T09:05:28.621Z,3.53
2023-05-18T09:07:57.596Z,3.53
2023-05-18T09:10:26.092Z,3.50
2023-05-18T09:12:55.857Z,3.70
2023-05-18T09:15:25.285Z,3.43
2023-05-18T09:17:53.632Z,3.70
2023-05-18T09:20:21.794Z,3.17
2023-05-18T09:22:51.556Z,3.47
2023-05-18T09:25:19.963Z,3.40
2023-05-18T09:28:07.575Z,3.30
2023-05-18T09:30:55.965Z,3.60
2023-05-18T09:33:24.018Z,3.50
2023-05-18T09:36:15.142Z,3.23
2023-05-18T09:38:47.153Z,3.60
2023-05-18T09:41:17.543Z,3.53
2023-05-18T09:43:46.437Z,3.80
2023-05-18T09:46:15.266Z,3.93
2023-05-18T09:48:44.583Z,3.87
2023-05-18T09:51:16.200Z,3.60
2023-05-18T09:53:49.810Z,3.40
2023-05-18T09:56:19.386Z,3.50
2023-05-18T09:58:47.845Z,3.70
2023-05-18T10:01:15.780Z,3.80
2023-05-18T10:03:45.686Z,3.80
2023-05-18T10:06:13.879Z,3.80
2023-05-18T10:08:42.566Z,3.90
2023-05-18T10:11:12.697Z,3.90
2023-05-18T10:13:43.827Z,3.80
2023-05-18T10:16:11.846Z,3.47
2023-05-18T10:18:40.652Z,3.67
2023-05-18T10:21:08.720Z,3.93
2023-05-18T10:23:37.959Z,3.97
2023-05-18T10:26:07.903Z,4.70
2023-05-18T10:28:42.279Z,3.83
2023-05-18T10:31:10.792Z,3.63
2023-05-18T10:33:39.289Z,3.57
2023-05-18T10:36:08.550Z,4.27
2023-05-18T10:38:39.255Z,4.00
2023-05-18T10:41:08.799Z,3.57
2023-05-18T10:43:38.506Z,4.30
2023-05-18T10:46:08.472Z,3.87
2023-05-18T10:48:41.127Z,3.80
2023-05-18T10:51:09.783Z,3.97
2023-05-18T10:53:38.928Z,3.73
2023-05-18T10:56:07.776Z,3.63
2023-05-18T10:58:38.889Z,3.90
2023-05-18T11:01:10.276Z,4.03
2023-05-18T11:03:40.933Z,3.97
2023-05-18T11:06:10.841Z,4.17
2023-05-18T11:08:48.036Z,4.00
2023-05-18T11:11:18.893Z,3.50
2023-05-18T11:13:51.734Z,4.47
2023-05-18T11:16:20.874Z,4.10
2023-05-18T11:18:50.816Z,4.20
2023-05-18T11:21:31.955Z,4.30
2023-05-18T11:24:18.657Z,4.27
2023-05-18T11:26:47.480Z,3.83
2023-05-18T11:29:23.045Z,4.13
2023-05-18T11:31:53.490Z,3.97
2023-05-18T11:34:45.048Z,4.10
2023-05-18T11:37:15.027Z,3.90
2023-05-18T11:39:55.364Z,3.73
2023-05-18T11:42:33.340Z,3.73
2023-05-18T11:45:08.989Z,3.67
2023-05-18T11:47:37.885Z,4.00
2023-05-18T11:50:09.411Z,3.90
2023-05-18T11:52:47.840Z,3.67
2023-05-18T11:55:17.518Z,3.40
2023-05-18T11:57:49.446Z,3.53
2023-05-18T12:00:20.410Z,3.67
2023-05-18T12:02:50.134Z,4.03
2023-05-18T12:05:18.550Z,3.90
2023-05-18T12:07:53.878Z,3.40
2023-05-18T12:10:22.781Z,4.30
2023-05-18T12:12:53.517Z,4.27
2023-05-18T12:15:25.289Z,4.13
2023-05-18T12:17:53.452Z,4.23
2023-05-18T12:23:38.092Z,3.93
2023-05-18T12:26:06.221Z,3.60
2023-05-18T12:28:34.133Z,3.43
2023-05-18T12:31:07.339Z,4.30
2023-05-18T12:33:35.686Z,3.83
2023-05-18T12:36:03.659Z,4.27
2023-05-18T12:38:32.660Z,3.77
2023-05-18T12:41:00.777Z,3.90
2023-05-18T12:43:33.957Z,3.97
2023-05-18T12:46:03.636Z,4.00
2023-05-18T12:48:36.958Z,3.87
2023-05-18T12:51:05.289Z,3.90
2023-05-18T12:53:42.863Z,4.07
2023-05-18T12:56:11.617Z,4.47
2023-05-18T12:58:40.635Z,3.90
2023-05-18T13:01:11.187Z,4.33
2023-05-18T13:03:41.851Z,3.87
2023-05-18T13:06:10.612Z,3.63
2023-05-18T13:08:39.024Z,4.10
2023-05-18T13:13:39.834Z,3.80
2023-05-18T13:16:17.305Z,3.70
2023-05-18T13:18:47.811Z,3.80
2023-05-18T13:21:16.096Z,4.27
2023-05-18T13:23:44.180Z,4.10
2023-05-18T13:28:58.825Z,4.20
2023-05-18T13:31:29.425Z,4.10
2023-05-18T13:33:57.666Z,4.20
2023-05-18T13:36:26.073Z,3.17
2023-05-18T13:38:54.148Z,3.87
2023-05-18T13:41:22.097Z,3.70
2023-05-18T13:43:50.070Z,4.37
2023-05-18T13:46:18.636Z,4.00
2023-05-18T13:48:48.200Z,4.10
2023-05-18T13:51:16.194Z,4.00
2023-05-18T13:53:44.248Z,4.77
2023-05-18T13:56:12.251Z,4.13
2023-05-18T13:58:40.156Z,4.53
2023-05-18T14:01:12.757Z,4.17
2023-05-18T14:03:41.751Z,4.60
2023-05-18T14:06:11.208Z,3.93
2023-05-18T14:08:39.219Z,3.70
2023-05-18T14:11:07.178Z,3.93
2023-05-18T14:13:35.032Z,4.13
2023-05-18T14:16:03.025Z,4.13
2023-05-18T14:18:30.956Z,3.73
2023-05-18T14:21:02.188Z,4.07
2023-05-18T14:23:31.536Z,3.87
2023-05-18T14:25:59.503Z,3.80
2023-05-18T14:28:27.574Z,3.67
2023-05-18T14:30:55.551Z,3.90
2023-05-18T14:33:23.518Z,4.57
2023-05-18T14:35:51.546Z,4.17
2023-05-18T14:38:19.625Z,3.80
2023-05-18T14:40:48.923Z,3.60
2023-05-18T14:43:16.837Z,3.87
2023-05-18T14:45:48.361Z,3.60
2023-05-18T14:48:37.924Z,3.40
2023-05-18T14:51:05.929Z,3.97
2023-05-18T14:53:33.893Z,4.70
2023-05-18T14:56:06.033Z,4.30
2023-05-18T14:58:34.044Z,4.43
2023-05-18T15:01:02.056Z,3.80
2023-05-18T15:03:30.013Z,4.10
2023-05-18T15:05:58.136Z,3.80
2023-05-18T15:08:26.126Z,3.77
2023-05-18T15:10:54.084Z,4.20
2023-05-18T15:13:23.588Z,4.13
2023-05-18T15:15:51.542Z,4.20
2023-05-18T15:18:19.527Z,3.93
2023-05-18T15:20:47.629Z,4.00
2023-05-18T15:23:15.773Z,3.73
2023-05-18T15:25:43.753Z,3.67
2023-05-18T15:28:12.121Z,4.10
2023-05-18T15:30:41.424Z,4.20
2023-05-18T15:33:09.476Z,4.30
2023-05-18T15:35:38.674Z,4.27
2023-05-18T15:38:06.662Z,3.97
2023-05-18T15:40:34.551Z,4.17
2023-05-18T15:43:21.142Z,3.77
2023-05-18T15:45:51.436Z,3.40
2023-05-18T15:48:39.992Z,3.90
2023-05-18T15:51:08.329Z,4.23
2023-05-18T15:53:36.236Z,4.37
2023-05-18T15:56:04.226Z,3.60
2023-05-18T15:58:32.242Z,4.13
2023-05-18T16:01:01.601Z,3.77
2023-05-18T16:03:29.990Z,3.33
2023-05-18T16:05:58.541Z,4.13
2023-05-18T16:08:26.504Z,3.80
2023-05-18T16:10:54.446Z,3.87
2023-05-18T16:13:25.841Z,3.60
2023-05-18T16:15:53.867Z,3.37
2023-05-18T16:18:23.100Z,3.63
2023-05-18T16:20:51.148Z,3.50
2023-05-18T16:23:19.016Z,3.90
2023-05-18T16:25:46.963Z,3.50
2023-05-18T16:28:14.889Z,3.50
2023-05-18T16:30:42.883Z,3.60
2023-05-18T16:33:10.887Z,3.67
2023-05-18T16:35:40.286Z,3.30
2023-05-18T16:38:08.233Z,3.30
2023-05-18T16:40:36.193Z,3.60
2023-05-18T16:43:04.061Z,3.50
2023-05-18T16:45:32.071Z,3.87
2023-05-18T16:48:00.721Z,3.70
2023-05-18T16:50:28.908Z,3.40
2023-05-18T16:52:58.480Z,3.43
2023-05-18T16:55:26.613Z,3.67
2023-05-18T16:57:55.376Z,3.20
2023-05-18T17:00:23.429Z,3.60
2023-05-18T17:02:52.676Z,3.50
2023-05-18T17:05:22.871Z,3.60
2023-05-18T17:07:51.846Z,3.93
2023-05-18T17:10:40.926Z,3.50
2023-05-18T17:13:09.078Z,3.53
2023-05-18T17:15:37.088Z,3.77
2023-05-18T17:18:05.367Z,3.47
2023-05-18T17:20:33.619Z,3.40
2023-05-18T17:23:02.126Z,3.50
2023-05-18T17:25:30.230Z,4.00
2023-05-18T17:27:59.590Z,3.90
2023-05-18T17:30:27.605Z,3.30
2023-05-18T17:32:56.435Z,3.73
2023-05-18T17:35:24.362Z,3.43
2023-05-18T17:37:53.624Z,3.87
2023-05-18T17:40:21.959Z,3.60
2023-05-18T17:42:49.920Z,4.30
2023-05-18T17:45:19.318Z,3.90
2023-05-18T17:47:47.211Z,3.70
2023-05-18T17:50:15.214Z,3.90
2023-05-18T17:52:43.110Z,4.20
2023-05-18T17:55:11.228Z,3.93
2023-05-18T17:57:44.902Z,3.90
2023-05-18T18:00:14.235Z,4.37
2023-05-18T18:02:43.848Z,4.03
2023-05-18T18:05:11.916Z,3.60
2023-05-18T18:07:40.085Z,3.90
2023-05-18T18:10:08.945Z,4.27
2023-05-18T18:12:36.877Z,4.03
2023-05-18T18:15:05.057Z,4.03
2023-05-18T18:17:33.427Z,3.87
2023-05-18T18:20:03.060Z,4.20
2023-05-18T18:22:32.271Z,3.63
2023-05-18T18:25:01.636Z,4.20
2023-05-18T18:27:29.634Z,4.30
2023-05-18T18:29:57.632Z,3.90
2023-05-18T18:32:25.785Z,3.87
2023-05-18T18:34:58.652Z,3.90
2023-05-18T18:37:28.336Z,4.00
2023-05-18T18:39:56.630Z,3.43
2023-05-18T18:42:24.607Z,4.27
2023-05-18T18:44:56.490Z,3.97
2023-05-18T18:47:24.557Z,4.13
2023-05-18T18:49:52.577Z,4.23
2023-05-18T18:52:20.520Z,3.83
2023-05-18T18:54:49.781Z,4.17
2023-05-18T18:57:17.756Z,4.10
2023-05-18T18:59:45.740Z,4.40
2023-05-18T19:02:13.765Z,4.17
2023-05-18T19:04:41.795Z,4.17
2023-05-18T19:07:09.731Z,3.87
2023-05-18T19:09:37.736Z,4.03
2023-05-18T19:12:08.548Z,4.13
2023-05-18T19:14:36.551Z,4.17
2023-05-18T19:17:04.688Z,4.47
2023-05-18T19:19:32.671Z,4.20
2023-05-18T19:22:00.663Z,3.83
2023-05-18T19:24:28.768Z,4.50
2023-05-18T19:27:06.207Z,3.93
2023-05-18T19:29:37.158Z,3.93
2023-05-18T19:32:08.920Z,3.97
2023-05-18T19:34:37.041Z,4.60
2023-05-18T19:37:05.105Z,4.20
2023-05-18T19:39:33.076Z,4.13
2023-05-18T19:42:01.087Z,4.23
2023-05-18T19:44:28.979Z,4.27
2023-05-18T19:46:58.451Z,4.10
2023-05-18T19:49:26.337Z,5.30
2023-05-18T19:51:54.254Z,4.93
2023-05-18T19:54:22.155Z,4.73
2023-05-18T19:56:50.054Z,4.83
2023-05-18T19:59:17.937Z,4.77
2023-05-18T20:01:46.402Z,4.60
2023-05-18T20:04:15.782Z,5.03
2023-05-18T20:06:43.833Z,4.70
2023-05-18T20:09:11.741Z,4.50
2023-05-18T20:11:39.603Z,4.60
2023-05-18T20:14:07.578Z,5.17
2023-05-18T20:16:54.523Z,4.97
2023-05-18T20:19:24.031Z,5.03
2023-05-18T20:21:52.009Z,5.60
2023-05-18T20:24:19.908Z,5.20
2023-05-18T20:26:47.845Z,4.90
2023-05-18T20:29:15.901Z,4.77
2023-05-18T20:31:43.864Z,5.30
2023-05-18T20:34:11.827Z,5.63
2023-05-18T20:36:41.068Z,5.20
2023-05-18T20:39:09.119Z,5.90
2023-05-18T20:41:39.957Z,5.73
2023-05-18T20:44:11.047Z,5.63
2023-05-18T20:46:42.264Z,5.40
2023-05-18T20:49:12.043Z,5.83
2023-05-18T20:51:41.378Z,5.73
2023-05-18T20:54:29.277Z,5.83
2023-05-18T20:56:57.240Z,5.53
2023-05-18T20:59:25.209Z,5.90
2023-05-18T21:01:53.373Z,5.53
2023-05-18T21:04:21.460Z,5.20
2023-05-18T21:06:50.800Z,5.77
2023-05-18T21:09:19.289Z,5.70
2023-05-18T21:11:47.254Z,5.80
2023-05-18T21:14:15.598Z,5.90
2023-05-18T21:16:43.713Z,5.53
2023-05-18T21:19:12.052Z,5.87
2023-05-18T21:21:40.043Z,5.73
2023-05-18T21:24:09.492Z,5.73
2023-05-18T21:26:37.369Z,6.30
2023-05-18T21:29:06.157Z,5.70
2023-05-18T21:31:34.235Z,5.87
2023-05-18T21:34:02.332Z,6.30
2023-05-18T21:36:33.845Z,6.40
2023-05-18T21:39:02.539Z,6.20
2023-05-18T21:41:32.087Z,6.13
2023-05-18T21:44:00.113Z,6.40
2023-05-18T21:46:28.500Z,5.90
2023-05-18T21:48:56.447Z,6.37
2023-05-18T21:51:25.237Z,6.10
2023-05-18T21:53:53.170Z,6.57
2023-05-18T21:56:21.247Z,6.30
2023-05-18T21:58:51.219Z,7.40
2023-05-18T22:01:21.147Z,7.00
2023-05-18T22:03:49.599Z,6.27
2023-05-18T22:06:18.388Z,6.90
2023-05-18T22:08:47.040Z,6.67
2023-05-18T22:11:15.469Z,6.50
2023-05-18T22:13:43.338Z,7.03
2023-05-18T22:16:12.905Z,6.83
2023-05-18T22:18:40.852Z,7.10
2023-05-18T22:21:08.798Z,6.90
2023-05-18T22:23:38.698Z,7.30
2023-05-18T22:26:07.087Z,7.13
2023-05-18T22:28:35.096Z,6.63
2023-05-18T22:31:03.065Z,6.90
2023-05-18T22:33:53.948Z,6.87
2023-05-18T22:36:22.442Z,6.60
2023-05-18T22:38:52.360Z,7.07
2023-05-18T22:41:21.855Z,7.17
2023-05-18T22:43:49.906Z,6.93
2023-05-18T22:46:17.917Z,6.70
2023-05-18T22:48:46.337Z,7.23
2023-05-18T22:51:16.004Z,6.87
2023-05-18T22:53:43.887Z,7.37
2023-05-18T22:56:11.931Z,7.13
2023-05-18T22:58:39.890Z,7.17
2023-05-18T23:01:26.185Z,6.97
2023-05-18T23:03:54.656Z,7.33
2023-05-18T23:06:24.017Z,7.90
2023-05-18T23:08:52.210Z,7.37
2023-05-18T23:11:20.191Z,6.63
2023-05-18T23:13:48.425Z,7.63
2023-05-18T23:16:16.337Z,7.03
2023-05-18T23:18:46.067Z,7.40
2023-05-18T23:21:14.422Z,7.30
2023-05-18T23:23:45.624Z,7.20
2023-05-18T23:26:13.629Z,7.13
2023-05-18T23:28:41.546Z,7.40
2023-05-18T23:31:09.464Z,7.37
2023-05-18T23:33:38.012Z,7.60
2023-05-18T23:36:07.215Z,6.87
2023-05-18T23:38:37.609Z,7.10
2023-05-18T23:41:08.030Z,6.97
2023-05-18T23:43:36.528Z,6.80
2023-05-18T23:46:06.040Z,6.80
2023-05-18T23:51:22.005Z,6.87
2023-05-18T23:53:52.017Z,6.93
2023-05-18T23:56:21.882Z,6.50
2023-05-18T23:58:50.107Z,6.43
